createdAt,value
2022-12-03T00:01:45.914Z,11.85
2022-12-03T00:04:12.382Z,11.30
2022-12-03T00:06:38.602Z,10.63
2022-12-03T00:09:05.038Z,11.50
2022-12-03T00:11:31.377Z,10.93
2022-12-03T00:13:57.633Z,11.30
2022-12-03T00:16:23.915Z,11.85
2022-12-03T00:18:50.227Z,11.52
2022-12-03T00:21:16.484Z,10.65
2022-12-03T00:23:42.739Z,10.65
2022-12-03T00:26:09.022Z,11.85
2022-12-03T00:28:35.241Z,11.40
2022-12-03T00:31:01.520Z,10.63
2022-12-03T00:33:27.812Z,11.18
2022-12-03T00:35:54.072Z,11.60
2022-12-03T00:38:20.302Z,11.50
2022-12-03T00:40:46.567Z,11.55
2022-12-03T00:43:12.891Z,11.23
2022-12-03T00:45:39.094Z,11.15
2022-12-03T00:48:05.427Z,10.45
2022-12-03T00:50:31.654Z,10.68
2022-12-03T00:52:57.879Z,10.43
2022-12-03T00:55:24.120Z,10.75
2022-12-03T00:57:50.375Z,11.77
2022-12-03T01:00:16.897Z,10.90
2022-12-03T01:02:43.150Z,10.63
2022-12-03T01:05:09.533Z,10.98
2022-12-03T01:07:36.255Z,10.13
2022-12-03T01:10:03.670Z,10.00
2022-12-03T01:12:29.881Z,11.00
2022-12-03T01:14:56.272Z,10.55
2022-12-03T01:17:22.538Z,10.88
2022-12-03T01:19:48.871Z,11.10
2022-12-03T01:22:15.084Z,12.52
2022-12-03T01:24:41.311Z,11.27
2022-12-03T01:27:07.528Z,10.48
2022-12-03T01:29:33.779Z,10.43
2022-12-03T01:32:19.211Z,11.32
2022-12-03T01:34:46.406Z,9.93
2022-12-03T01:37:13.274Z,10.95
2022-12-03T01:42:07.776Z,10.18
2022-12-03T01:44:34.850Z,11.20
2022-12-03T01:47:02.270Z,10.27
2022-12-03T01:49:29.670Z,10.73
2022-12-03T01:51:56.244Z,11.48
2022-12-03T01:54:26.046Z,10.45
2022-12-03T01:56:53.327Z,11.60
2022-12-03T01:59:21.057Z,11.23
2022-12-03T02:01:47.356Z,10.95
2022-12-03T02:04:14.726Z,9.45
2022-12-03T02:06:41.936Z,11.32
2022-12-03T02:09:09.950Z,11.98
2022-12-03T02:11:38.600Z,10.82
2022-12-03T02:14:10.166Z,11.82
2022-12-03T02:16:37.605Z,11.88
2022-12-03T02:19:04.473Z,12.68
2022-12-03T02:24:01.152Z,10.05
2022-12-03T02:26:27.501Z,11.25
2022-12-03T02:28:53.769Z,11.75
2022-12-03T02:31:20.146Z,10.63
2022-12-03T02:33:46.437Z,11.20
2022-12-03T02:36:12.719Z,10.90
2022-12-03T02:38:39.244Z,11.10
2022-12-03T02:41:09.052Z,11.70
2022-12-03T02:43:35.376Z,12.45
2022-12-03T02:46:02.443Z,11.48
2022-12-03T02:48:30.886Z,11.68
2022-12-03T02:50:59.273Z,12.27
2022-12-03T02:53:27.274Z,12.27
2022-12-03T02:55:54.548Z,12.15
2022-12-03T02:58:21.142Z,12.20
2022-12-03T03:00:49.245Z,13.02
2022-12-03T03:03:16.748Z,13.07
2022-12-03T03:05:43.349Z,12.40
2022-12-03T03:08:10.278Z,12.25
2022-12-03T03:13:03.759Z,11.30
2022-12-03T03:15:30.086Z,12.57
2022-12-03T03:17:56.323Z,11.98
2022-12-03T03:20:22.582Z,11.90
2022-12-03T03:22:48.969Z,11.18
2022-12-03T03:25:17.341Z,12.55
2022-12-03T03:27:44.334Z,12.63
2022-12-03T03:30:10.819Z,12.85
2022-12-03T03:32:37.440Z,12.00
2022-12-03T03:35:03.987Z,12.57
2022-12-03T03:37:30.364Z,11.63
2022-12-03T03:39:56.627Z,12.80
2022-12-03T03:42:23.116Z,11.90
2022-12-03T03:44:49.635Z,11.88
2022-12-03T03:47:16.656Z,12.00
2022-12-03T03:49:43.004Z,12.63
2022-12-03T03:52:11.502Z,13.05
2022-12-03T03:54:38.263Z,12.35
2022-12-03T03:57:04.655Z,12.07
2022-12-03T03:59:30.891Z,12.75
2022-12-03T04:01:57.123Z,12.98
2022-12-03T04:04:24.311Z,12.88
2022-12-03T04:06:50.625Z,12.45
2022-12-03T04:09:16.832Z,13.18
2022-12-03T04:12:01.853Z,12.27
2022-12-03T04:14:28.068Z,12.20
2022-12-03T04:16:54.318Z,12.13
2022-12-03T04:19:20.555Z,12.45
2022-12-03T04:22:05.399Z,12.48
2022-12-03T04:24:31.644Z,13.43
2022-12-03T04:27:16.416Z,13.50
2022-12-03T04:29:42.637Z,12.82
2022-12-03T04:32:27.527Z,14.10
2022-12-03T04:35:29.203Z,12.77
2022-12-03T04:37:55.604Z,12.32
2022-12-03T04:40:40.258Z,13.43
2022-12-03T04:43:06.556Z,13.70
2022-12-03T04:45:32.849Z,13.60
2022-12-03T04:47:59.130Z,14.38
2022-12-03T04:50:25.423Z,14.15
2022-12-03T04:52:51.664Z,13.40
2022-12-03T04:55:17.879Z,15.30
2022-12-03T04:57:44.150Z,14.15
2022-12-03T05:00:10.775Z,14.45
2022-12-03T05:02:37.054Z,13.77
2022-12-03T05:05:03.404Z,13.95
2022-12-03T05:07:29.697Z,13.68
2022-12-03T05:09:55.928Z,13.80
2022-12-03T05:12:22.150Z,13.93
2022-12-03T05:14:48.405Z,14.32
2022-12-03T05:17:14.652Z,14.32
2022-12-03T05:19:59.606Z,13.48
2022-12-03T05:22:25.834Z,15.38
2022-12-03T05:24:52.334Z,14.55
2022-12-03T05:27:23.327Z,15.43
2022-12-03T05:29:50.041Z,13.95
2022-12-03T05:32:16.287Z,14.23
2022-12-03T05:34:42.580Z,14.65
2022-12-03T05:37:08.819Z,14.88
2022-12-03T05:39:35.052Z,14.80
2022-12-03T05:42:19.931Z,14.95
2022-12-03T05:44:46.167Z,14.50
2022-12-03T05:47:12.411Z,14.65
2022-12-03T05:49:38.652Z,15.05
2022-12-03T05:52:04.971Z,16.10
2022-12-03T05:54:31.198Z,15.07
2022-12-03T05:56:57.442Z,15.60
2022-12-03T05:59:23.672Z,14.82
2022-12-03T06:01:49.883Z,15.80
2022-12-03T06:04:16.117Z,15.98
2022-12-03T06:06:42.327Z,15.55
2022-12-03T06:09:08.555Z,15.32
2022-12-03T06:11:36.861Z,15.63
2022-12-03T06:14:03.358Z,15.55
2022-12-03T06:16:29.685Z,16.00
2022-12-03T06:18:55.973Z,17.48
2022-12-03T06:21:22.253Z,17.10
2022-12-03T06:23:48.527Z,17.40
2022-12-03T06:26:14.887Z,17.88
2022-12-03T06:28:45.529Z,16.85
2022-12-03T06:31:12.441Z,19.02
2022-12-03T06:36:05.097Z,17.10
2022-12-03T06:38:31.358Z,18.75
2022-12-03T06:40:57.586Z,17.65
2022-12-03T06:43:23.811Z,16.15
2022-12-03T06:45:50.083Z,17.05
2022-12-03T06:48:16.339Z,18.77
2022-12-03T06:50:42.574Z,19.10
2022-12-03T06:53:08.792Z,16.30
2022-12-03T06:55:35.055Z,17.63
2022-12-03T06:58:01.277Z,17.60
2022-12-03T07:00:27.532Z,18.15
2022-12-03T07:02:53.901Z,16.80
2022-12-03T07:05:20.162Z,15.60
2022-12-03T07:07:51.921Z,16.63
2022-12-03T07:10:18.936Z,17.83
2022-12-03T07:15:11.327Z,15.57
2022-12-03T07:17:37.561Z,16.67
2022-12-03T07:20:06.823Z,17.50
2022-12-03T07:22:33.139Z,17.27
2022-12-03T07:24:59.378Z,18.63
2022-12-03T07:27:25.622Z,18.23
2022-12-03T07:29:51.847Z,16.67
2022-12-03T07:32:18.206Z,17.88
2022-12-03T07:34:44.430Z,18.98
2022-12-03T07:37:10.645Z,17.88
2022-12-03T07:39:36.961Z,18.75
2022-12-03T07:42:03.417Z,20.70
2022-12-03T07:44:31.619Z,19.00
2022-12-03T07:46:58.312Z,18.10
2022-12-03T07:49:24.859Z,21.15
2022-12-03T07:51:54.386Z,22.15
2022-12-03T07:54:20.924Z,22.58
2022-12-03T07:56:49.948Z,21.60
2022-12-03T07:59:16.837Z,20.63
2022-12-03T08:04:09.444Z,19.33
2022-12-03T08:06:35.715Z,20.30
2022-12-03T08:09:02.004Z,21.60
2022-12-03T08:11:28.910Z,18.85
2022-12-03T08:16:21.896Z,19.33
2022-12-03T08:21:15.940Z,18.48
2022-12-03T08:23:42.501Z,19.58
2022-12-03T08:26:25.582Z,20.27
2022-12-03T08:28:52.495Z,21.27
2022-12-03T08:33:50.493Z,19.27
2022-12-03T08:36:24.557Z,19.20
2022-12-03T08:38:51.938Z,19.25
2022-12-03T08:41:37.461Z,21.02
2022-12-03T08:44:22.515Z,19.85
2022-12-03T08:46:52.769Z,19.67
2022-12-03T08:49:20.100Z,20.80
2022-12-03T08:51:46.371Z,20.60
2022-12-03T08:54:14.278Z,20.83
2022-12-03T08:56:41.201Z,20.42
2022-12-03T09:01:38.553Z,20.08
2022-12-03T09:04:16.173Z,20.30
2022-12-03T09:06:42.560Z,20.52
2022-12-03T09:09:08.791Z,20.52
2022-12-03T09:11:35.090Z,21.98
2022-12-03T09:14:01.416Z,25.35
2022-12-03T09:16:27.826Z,22.30
2022-12-03T09:18:54.111Z,21.08
2022-12-03T09:21:20.508Z,20.73
2022-12-03T09:23:46.733Z,22.25
2022-12-03T09:26:12.979Z,22.35
2022-12-03T09:28:39.211Z,20.55
2022-12-03T09:31:05.545Z,20.38
2022-12-03T09:33:32.417Z,23.35
2022-12-03T09:35:59.388Z,20.30
2022-12-03T09:40:52.212Z,20.00
2022-12-03T09:43:18.653Z,20.60
2022-12-03T09:45:45.639Z,21.95
2022-12-03T09:48:12.840Z,20.92
2022-12-03T09:50:40.380Z,23.08
2022-12-03T09:53:06.608Z,20.77
2022-12-03T09:55:32.891Z,22.17
2022-12-03T09:58:00.546Z,21.58
2022-12-03T10:00:28.777Z,22.33
2022-12-03T10:02:57.203Z,22.38
2022-12-03T10:05:23.970Z,24.55
2022-12-03T10:07:51.104Z,27.02
2022-12-03T10:10:23.867Z,31.10
2022-12-03T10:12:50.747Z,30.05
2022-12-03T10:17:43.326Z,26.13
2022-12-03T10:20:11.220Z,24.60
2022-12-03T10:22:37.494Z,25.98
2022-12-03T10:25:12.342Z,21.85
2022-12-03T10:27:39.091Z,23.55
2022-12-03T10:30:13.990Z,21.33
2022-12-03T10:32:45.106Z,20.67
2022-12-03T10:35:12.863Z,19.70
2022-12-03T10:37:57.397Z,22.15
2022-12-03T10:40:24.836Z,20.90
2022-12-03T10:42:51.083Z,20.65
2022-12-03T10:45:24.938Z,21.45
2022-12-03T10:48:11.517Z,20.88
2022-12-03T10:50:38.104Z,20.33
2022-12-03T10:53:04.702Z,21.00
2022-12-03T10:55:35.715Z,21.20
2022-12-03T10:58:02.025Z,20.25
2022-12-03T11:00:28.446Z,20.00
2022-12-03T11:02:56.930Z,20.45
2022-12-03T11:05:26.831Z,19.83
2022-12-03T11:07:53.242Z,20.73
2022-12-03T11:10:19.836Z,19.20
2022-12-03T11:13:04.757Z,19.45
2022-12-03T11:15:41.881Z,19.95
2022-12-03T11:18:08.283Z,18.77
2022-12-03T11:21:00.271Z,19.42
2022-12-03T11:23:58.831Z,21.00
2022-12-03T11:26:27.974Z,19.10
2022-12-03T11:28:55.672Z,20.35
2022-12-03T11:31:40.927Z,20.60
2022-12-03T11:34:19.708Z,19.95
2022-12-03T11:37:04.436Z,20.85
2022-12-03T11:39:49.257Z,21.42
2022-12-03T11:42:27.520Z,22.25
2022-12-03T11:45:06.074Z,20.83
2022-12-03T11:47:33.967Z,19.77
2022-12-03T11:50:00.571Z,20.13
2022-12-03T11:52:29.227Z,20.35
2022-12-03T11:55:04.295Z,22.35
2022-12-03T11:57:33.039Z,20.70
2022-12-03T12:00:00.165Z,21.88
2022-12-03T12:02:26.524Z,23.38
2022-12-03T12:04:52.799Z,21.48
2022-12-03T12:07:35.435Z,21.70
2022-12-03T12:10:02.135Z,23.27
2022-12-03T12:12:36.903Z,21.20
2022-12-03T12:15:23.123Z,21.05
2022-12-03T12:17:49.421Z,21.08
2022-12-03T12:20:21.759Z,22.77
2022-12-03T12:22:47.983Z,22.27
2022-12-03T12:25:29.536Z,22.23
2022-12-03T12:27:56.680Z,23.75
2022-12-03T12:30:23.333Z,22.30
2022-12-03T12:32:51.226Z,23.13
2022-12-03T12:35:17.486Z,23.27
2022-12-03T12:37:59.632Z,25.67
2022-12-03T12:40:28.399Z,23.90
2022-12-03T12:42:57.442Z,24.35
2022-12-03T12:45:24.835Z,21.83
2022-12-03T12:48:09.719Z,23.48
2022-12-03T12:50:39.639Z,22.90
2022-12-03T12:53:26.135Z,22.90
2022-12-03T12:56:00.067Z,21.70
2022-12-03T12:58:28.192Z,21.92
2022-12-03T13:00:58.546Z,21.30
2022-12-03T13:03:26.173Z,21.30
2022-12-03T13:05:52.954Z,22.35
2022-12-03T13:08:22.322Z,23.10
2022-12-03T13:10:49.155Z,22.50
2022-12-03T13:13:17.687Z,22.63
2022-12-03T13:15:52.131Z,22.50
2022-12-03T13:18:21.475Z,23.15
2022-12-03T13:20:48.011Z,22.80
2022-12-03T13:23:26.009Z,21.95
2022-12-03T13:26:07.158Z,22.77
2022-12-03T13:28:40.849Z,23.25
2022-12-03T13:31:26.570Z,24.63
2022-12-03T13:33:53.498Z,25.55
2022-12-03T13:38:46.438Z,22.50
2022-12-03T13:41:33.312Z,25.20
2022-12-03T13:43:59.761Z,24.20
2022-12-03T13:46:28.263Z,22.42
2022-12-03T13:48:58.699Z,24.80
2022-12-03T13:51:29.542Z,24.58
2022-12-03T13:53:57.645Z,22.00
2022-12-03T13:56:31.651Z,22.85
2022-12-03T13:59:00.007Z,22.90
2022-12-03T14:01:27.015Z,22.98
2022-12-03T14:03:53.304Z,22.75
2022-12-03T14:06:19.566Z,24.02
2022-12-03T14:08:45.799Z,22.58
2022-12-03T14:11:32.236Z,20.70
2022-12-03T14:13:58.446Z,22.33
2022-12-03T14:16:24.761Z,24.25
2022-12-03T14:18:51.178Z,21.30
2022-12-03T14:21:17.432Z,31.40
2022-12-03T14:23:43.688Z,21.80
2022-12-03T14:26:09.972Z,20.83
2022-12-03T14:28:36.223Z,19.90
2022-12-03T14:31:02.568Z,22.25
2022-12-03T14:33:28.897Z,22.20
2022-12-03T14:35:56.201Z,24.92
2022-12-03T14:38:22.512Z,22.27
2022-12-03T14:40:48.756Z,22.48
2022-12-03T14:43:15.048Z,23.63
2022-12-03T14:45:41.425Z,20.23
2022-12-03T14:48:07.724Z,19.92
2022-12-03T14:50:33.974Z,21.13
2022-12-03T14:53:00.198Z,20.70
2022-12-03T14:55:26.462Z,20.75
2022-12-03T14:57:52.778Z,20.75
2022-12-03T15:00:19.308Z,20.92
2022-12-03T15:02:45.586Z,19.80
2022-12-03T15:05:11.887Z,21.33
2022-12-03T15:07:39.334Z,21.42
2022-12-03T15:10:06.694Z,21.17
2022-12-03T15:12:32.975Z,20.58
2022-12-03T15:14:59.599Z,20.42
2022-12-03T15:17:31.635Z,22.98
2022-12-03T15:19:58.317Z,21.35
2022-12-03T15:22:24.713Z,21.67
2022-12-03T15:24:50.974Z,20.25
2022-12-03T15:27:17.194Z,20.25
2022-12-03T15:29:43.515Z,21.08
2022-12-03T15:32:09.753Z,20.90
2022-12-03T15:34:36.008Z,20.80
2022-12-03T15:37:02.377Z,20.90
2022-12-03T15:39:29.476Z,18.90
2022-12-03T15:41:55.787Z,19.98
2022-12-03T15:44:22.049Z,20.85
2022-12-03T15:46:48.349Z,19.55
2022-12-03T15:49:14.657Z,20.58
2022-12-03T15:51:40.911Z,20.58
2022-12-03T15:54:07.229Z,19.40
2022-12-03T15:56:37.305Z,20.48
2022-12-03T15:59:03.651Z,19.40
2022-12-03T16:01:29.986Z,20.02
2022-12-03T16:03:56.257Z,21.92
2022-12-03T16:06:22.473Z,20.77
2022-12-03T16:08:48.703Z,21.08
2022-12-03T16:11:14.965Z,19.33
2022-12-03T16:13:41.165Z,18.73
2022-12-03T16:16:07.573Z,19.50
2022-12-03T16:18:33.904Z,18.35
2022-12-03T16:21:00.135Z,17.73
2022-12-03T16:23:26.379Z,20.02
2022-12-03T16:25:52.694Z,18.77
2022-12-03T16:28:18.914Z,17.77
2022-12-03T16:30:45.226Z,17.35
2022-12-03T16:33:11.474Z,17.88
2022-12-03T16:35:37.710Z,17.80
2022-12-03T16:38:03.917Z,17.80
2022-12-03T16:40:30.151Z,19.05
2022-12-03T16:42:56.378Z,18.50
2022-12-03T16:45:22.644Z,18.05
2022-12-03T16:47:49.580Z,16.23
2022-12-03T16:52:48.296Z,17.00
2022-12-03T16:55:14.559Z,19.35
2022-12-03T16:57:40.831Z,17.17
2022-12-03T17:00:07.576Z,18.17
2022-12-03T17:02:33.828Z,15.05
2022-12-03T17:05:00.129Z,16.75
2022-12-03T17:07:26.496Z,16.52
2022-12-03T17:09:53.126Z,17.92
2022-12-03T17:12:19.559Z,16.27
2022-12-03T17:14:45.793Z,15.85
2022-12-03T17:17:12.030Z,17.42
2022-12-03T17:19:38.241Z,17.58
2022-12-03T17:22:04.680Z,17.17
2022-12-03T17:24:30.881Z,17.70
2022-12-03T17:26:57.108Z,17.48
2022-12-03T17:29:23.335Z,18.13
2022-12-03T17:31:49.701Z,17.83
2022-12-03T17:34:16.004Z,17.65
2022-12-03T17:36:42.245Z,15.73
2022-12-03T17:39:08.446Z,18.05
2022-12-03T17:41:34.669Z,19.25
2022-12-03T17:44:04.721Z,17.83
2022-12-03T17:46:33.654Z,16.42
2022-12-03T17:48:59.907Z,16.60
2022-12-03T17:51:26.118Z,16.15
2022-12-03T17:53:52.400Z,16.55
2022-12-03T17:56:18.647Z,17.58
2022-12-03T17:58:44.853Z,17.30
2022-12-03T18:01:11.663Z,17.17
2022-12-03T18:03:37.963Z,18.13
2022-12-03T18:06:04.556Z,18.00
2022-12-03T18:08:30.751Z,19.20
2022-12-03T18:10:56.987Z,18.67
2022-12-03T18:13:23.223Z,17.77
2022-12-03T18:15:49.501Z,18.17
2022-12-03T18:18:15.882Z,17.20
2022-12-03T18:20:42.137Z,18.48
2022-12-03T18:23:08.378Z,18.20
2022-12-03T18:25:34.729Z,16.30
2022-12-03T18:28:00.968Z,17.33
2022-12-03T18:30:27.199Z,18.27
2022-12-03T18:32:53.492Z,16.05
2022-12-03T18:35:20.599Z,18.70
2022-12-03T18:37:48.587Z,17.58
2022-12-03T18:40:24.663Z,16.80
2022-12-03T18:42:50.918Z,16.92
2022-12-03T18:45:17.188Z,17.63
2022-12-03T18:47:43.538Z,19.77
2022-12-03T18:50:10.416Z,17.90
2022-12-03T18:55:02.787Z,16.30
2022-12-03T18:57:29.021Z,16.92
2022-12-03T18:59:55.685Z,19.65
2022-12-03T19:05:08.687Z,18.60
2022-12-03T19:07:35.023Z,17.70
2022-12-03T19:10:01.288Z,18.10
2022-12-03T19:12:27.546Z,18.75
2022-12-03T19:14:53.767Z,17.60
2022-12-03T19:17:21.296Z,18.30
2022-12-03T19:19:47.509Z,19.48
2022-12-03T19:22:13.754Z,19.20
2022-12-03T19:24:39.981Z,19.27
2022-12-03T19:27:06.220Z,20.15
2022-12-03T19:29:32.430Z,18.88
2022-12-03T19:31:58.744Z,18.75
2022-12-03T19:34:25.110Z,20.35
2022-12-03T19:36:51.373Z,20.02
2022-12-03T19:39:20.611Z,21.42
2022-12-03T19:41:46.888Z,20.40
2022-12-03T19:44:14.815Z,18.50
2022-12-03T19:46:41.353Z,19.95
2022-12-03T19:49:07.827Z,19.85
2022-12-03T19:51:35.623Z,19.35
2022-12-03T19:54:05.974Z,18.80
2022-12-03T19:56:32.613Z,19.15
2022-12-03T19:58:58.832Z,21.75
2022-12-03T20:01:26.452Z,20.77
2022-12-03T20:03:53.825Z,21.25
2022-12-03T20:06:23.028Z,19.95
2022-12-03T20:08:49.976Z,20.77
2022-12-03T20:13:42.894Z,21.10
2022-12-03T20:16:12.487Z,20.60
2022-12-03T20:18:40.280Z,19.48
2022-12-03T20:21:06.577Z,17.35
2022-12-03T20:23:32.831Z,20.25
2022-12-03T20:25:59.130Z,20.30
2022-12-03T20:28:26.846Z,20.90
2022-12-03T20:31:04.275Z,22.17
2022-12-03T20:35:57.110Z,19.80
2022-12-03T20:38:23.730Z,20.40
2022-12-03T20:40:49.961Z,21.50
2022-12-03T20:43:16.370Z,20.52
2022-12-03T20:45:42.817Z,21.30
2022-12-03T20:48:09.166Z,19.88
2022-12-03T20:50:37.629Z,21.13
2022-12-03T20:53:23.782Z,19.90
2022-12-03T20:55:56.691Z,19.48
2022-12-03T20:58:23.022Z,20.48
2022-12-03T21:00:49.351Z,20.67
2022-12-03T21:03:15.645Z,21.90
2022-12-03T21:05:43.733Z,21.75
2022-12-03T21:08:10.497Z,21.05
2022-12-03T21:10:44.494Z,21.42
2022-12-03T21:13:14.688Z,23.08
2022-12-03T21:15:41.450Z,22.20
2022-12-03T21:18:08.863Z,20.45
2022-12-03T21:20:42.013Z,19.30
2022-12-03T21:23:08.662Z,19.80
2022-12-03T21:25:35.621Z,18.83
2022-12-03T21:28:02.967Z,19.88
2022-12-03T21:30:29.264Z,19.15
2022-12-03T21:32:55.511Z,21.67
2022-12-03T21:35:21.835Z,20.88
2022-12-03T21:37:48.779Z,19.77
2022-12-03T21:42:41.782Z,19.17
2022-12-03T21:45:08.184Z,18.90
2022-12-03T21:47:37.244Z,19.58
2022-12-03T21:50:05.022Z,19.50
2022-12-03T21:52:31.970Z,16.85
2022-12-03T21:54:58.170Z,17.38
2022-12-03T21:57:24.376Z,19.30
2022-12-03T21:59:50.633Z,19.27
2022-12-03T22:02:16.931Z,17.92
2022-12-03T22:04:43.263Z,19.58
2022-12-03T22:07:09.495Z,19.40
2022-12-03T22:09:35.762Z,19.58
2022-12-03T22:12:02.033Z,18.70
2022-12-03T22:14:28.519Z,20.70
2022-12-03T22:16:54.792Z,20.35
2022-12-03T22:19:25.362Z,19.75
2022-12-03T22:21:51.745Z,18.80
2022-12-03T22:24:19.316Z,18.70
2022-12-03T22:26:46.184Z,19.88
2022-12-03T22:31:38.564Z,20.17
2022-12-03T22:34:05.088Z,19.90
2022-12-03T22:36:31.305Z,19.52
2022-12-03T22:38:57.529Z,19.90
2022-12-03T22:41:23.741Z,18.10
2022-12-03T22:43:49.970Z,18.85
2022-12-03T22:46:16.598Z,17.45
2022-12-03T22:48:43.504Z,17.95
2022-12-03T22:53:35.866Z,18.38
2022-12-03T22:56:02.080Z,16.90
2022-12-03T22:58:28.493Z,18.38
2022-12-03T23:00:59.818Z,17.60
2022-12-03T23:03:28.805Z,20.23
2022-12-03T23:05:55.057Z,18.55
2022-12-03T23:08:21.608Z,17.90
2022-12-03T23:10:49.287Z,17.98
2022-12-03T23:13:15.936Z,18.42
2022-12-03T23:15:49.264Z,18.17
2022-12-03T23:18:16.404Z,16.45
2022-12-03T23:20:43.958Z,17.60
2022-12-03T23:23:10.184Z,18.30
2022-12-03T23:25:37.183Z,17.85
2022-12-03T23:28:03.665Z,16.55
2022-12-03T23:30:30.005Z,16.23
2022-12-03T23:32:56.299Z,18.20
2022-12-03T23:35:22.525Z,17.17
2022-12-03T23:37:48.740Z,17.10
2022-12-03T23:40:14.995Z,16.98
2022-12-03T23:42:41.217Z,15.63
2022-12-03T23:45:07.854Z,15.43
2022-12-03T23:47:34.134Z,17.00
2022-12-03T23:50:00.386Z,14.13
2022-12-03T23:52:26.591Z,17.23
2022-12-03T23:54:52.822Z,17.60
2022-12-03T23:57:19.069Z,18.30
2022-12-03T23:59:45.401Z,17.88
